createdAt,value
2022-12-05T00:01:24.261Z,21.27
2022-12-05T00:03:53.689Z,21.85
2022-12-05T00:06:22.155Z,21.55
2022-12-05T00:08:50.117Z,21.88
2022-12-05T00:11:24.399Z,23.27
2022-12-05T00:13:54.790Z,23.30
2022-12-05T00:16:23.924Z,21.60
2022-12-05T00:18:52.155Z,23.40
2022-12-05T00:21:25.145Z,23.45
2022-12-05T00:23:53.926Z,22.42
2022-12-05T00:26:22.209Z,22.15
2022-12-05T00:28:50.153Z,21.73
2022-12-05T00:31:20.617Z,21.58
2022-12-05T00:33:48.652Z,20.90
2022-12-05T00:36:19.209Z,19.95
2022-12-05T00:38:46.856Z,21.95
2022-12-05T00:41:17.070Z,22.95
2022-12-05T00:43:44.983Z,18.77
2022-12-05T00:46:19.456Z,21.25
2022-12-05T00:48:47.770Z,19.85
2022-12-05T00:51:28.322Z,22.55
2022-12-05T00:54:00.950Z,21.48
2022-12-05T00:56:29.723Z,20.73
2022-12-05T00:58:58.215Z,21.23
2022-12-05T01:01:30.113Z,23.17
2022-12-05T01:03:59.109Z,22.73
2022-12-05T01:06:27.968Z,21.90
2022-12-05T01:08:56.495Z,22.77
2022-12-05T01:11:24.847Z,19.88
2022-12-05T01:13:53.135Z,20.77
2022-12-05T01:16:27.553Z,20.85
2022-12-05T01:18:56.630Z,21.73
2022-12-05T01:21:24.892Z,19.63
2022-12-05T01:23:52.499Z,22.10
2022-12-05T01:26:21.486Z,22.67
2022-12-05T01:28:49.961Z,20.75
2022-12-05T01:31:29.569Z,22.73
2022-12-05T01:33:59.959Z,22.80
2022-12-05T01:36:28.706Z,22.23
2022-12-05T01:38:56.957Z,20.15
2022-12-05T01:41:28.580Z,21.10
2022-12-05T01:44:01.241Z,21.70
2022-12-05T01:46:32.560Z,21.00
2022-12-05T01:49:16.556Z,21.35
2022-12-05T01:51:47.087Z,21.75
2022-12-05T01:54:16.314Z,22.08
2022-12-05T01:56:47.015Z,21.27
2022-12-05T01:59:15.129Z,21.90
2022-12-05T02:01:42.801Z,21.38
2022-12-05T02:04:10.871Z,21.00
2022-12-05T02:06:38.432Z,21.20
2022-12-05T02:09:06.101Z,22.20
2022-12-05T02:11:34.683Z,20.67
2022-12-05T02:14:17.502Z,22.88
2022-12-05T02:17:03.919Z,21.80
2022-12-05T02:19:48.341Z,22.80
2022-12-05T02:22:54.144Z,22.85
2022-12-05T02:25:49.981Z,23.45
2022-12-05T02:28:46.575Z,23.70
2022-12-05T02:31:21.962Z,23.10
2022-12-05T02:33:57.051Z,23.02
2022-12-05T02:36:41.327Z,21.33
2022-12-05T02:39:47.779Z,23.15
2022-12-05T02:42:24.562Z,21.65
2022-12-05T02:44:59.926Z,23.45
2022-12-05T02:47:29.556Z,22.02
2022-12-05T02:49:58.317Z,21.42
2022-12-05T02:52:26.848Z,21.88
2022-12-05T02:54:56.107Z,21.00
2022-12-05T02:57:26.882Z,24.27
2022-12-05T02:59:54.660Z,21.90
2022-12-05T03:02:28.150Z,23.48
2022-12-05T03:05:02.314Z,23.48
2022-12-05T03:07:31.737Z,22.58
2022-12-05T03:10:01.779Z,24.35
2022-12-05T03:12:32.274Z,23.65
2022-12-05T03:15:24.588Z,21.98
2022-12-05T03:18:17.661Z,22.55
2022-12-05T03:20:56.559Z,23.73
2022-12-05T03:23:37.206Z,23.33
2022-12-05T03:26:04.765Z,23.08
2022-12-05T03:28:48.280Z,22.08
2022-12-05T03:31:20.187Z,21.58
2022-12-05T03:33:51.367Z,22.13
2022-12-05T03:36:22.895Z,23.17
2022-12-05T03:38:57.096Z,23.58
2022-12-05T03:41:45.701Z,23.08
2022-12-05T03:44:29.191Z,23.48
2022-12-05T03:46:59.490Z,22.73
2022-12-05T03:49:39.321Z,23.00
2022-12-05T03:52:41.402Z,22.92
2022-12-05T03:55:19.046Z,21.42
2022-12-05T03:58:00.503Z,22.80
2022-12-05T04:00:30.595Z,22.88
2022-12-05T04:03:10.214Z,22.80
2022-12-05T04:05:43.595Z,22.98
2022-12-05T04:08:20.380Z,22.95
2022-12-05T04:10:50.693Z,22.17
2022-12-05T04:13:23.994Z,22.17
2022-12-05T04:16:15.582Z,22.20
2022-12-05T04:18:47.866Z,22.65
2022-12-05T04:21:35.416Z,21.55
2022-12-05T04:24:21.423Z,22.70
2022-12-05T04:26:54.436Z,23.10
2022-12-05T04:29:29.579Z,21.80
2022-12-05T04:32:01.073Z,22.38
2022-12-05T04:34:29.264Z,22.33
2022-12-05T04:37:02.956Z,22.38
2022-12-05T04:39:33.119Z,20.75
2022-12-05T04:42:07.968Z,21.90
2022-12-05T04:44:46.216Z,21.15
2022-12-05T04:47:15.021Z,20.38
2022-12-05T04:49:45.185Z,21.70
2022-12-05T04:52:15.187Z,20.27
2022-12-05T04:54:50.550Z,23.02
2022-12-05T04:58:01.915Z,21.42
2022-12-05T05:00:31.204Z,21.85
2022-12-05T05:03:25.741Z,19.75
2022-12-05T05:05:55.524Z,20.35
2022-12-05T05:08:27.573Z,21.17
2022-12-05T05:11:15.735Z,20.10
2022-12-05T05:13:43.315Z,20.35
2022-12-05T05:16:29.130Z,19.67
2022-12-05T05:18:57.324Z,19.95
2022-12-05T05:21:30.846Z,19.73
2022-12-05T05:23:58.845Z,18.20
2022-12-05T05:26:27.404Z,17.85
2022-12-05T05:28:55.518Z,18.65
2022-12-05T05:31:23.201Z,18.20
2022-12-05T05:33:52.442Z,17.85
2022-12-05T05:36:20.576Z,18.38
2022-12-05T05:38:50.253Z,17.83
2022-12-05T05:41:23.416Z,17.80
2022-12-05T05:43:51.666Z,17.85
2022-12-05T05:46:21.498Z,17.88
2022-12-05T05:48:49.162Z,16.38
2022-12-05T05:51:17.319Z,17.60
2022-12-05T05:53:45.673Z,15.75
2022-12-05T05:56:21.769Z,16.58
2022-12-05T05:58:55.026Z,17.20
2022-12-05T06:01:23.019Z,17.38
2022-12-05T06:03:51.087Z,16.67
2022-12-05T06:06:19.978Z,16.15
2022-12-05T06:08:47.575Z,16.20
2022-12-05T06:11:25.245Z,16.17
2022-12-05T06:13:55.860Z,17.13
2022-12-05T06:16:24.083Z,15.65
2022-12-05T06:18:52.606Z,15.57
2022-12-05T06:21:20.916Z,17.65
2022-12-05T06:23:48.619Z,17.35
2022-12-05T06:26:18.888Z,18.63
2022-12-05T06:28:46.555Z,16.73
2022-12-05T06:31:17.406Z,17.10
2022-12-05T06:33:45.187Z,16.25
2022-12-05T06:36:15.477Z,15.98
2022-12-05T06:38:43.661Z,16.10
2022-12-05T06:41:16.722Z,15.10
2022-12-05T06:43:44.350Z,15.52
2022-12-05T06:46:13.318Z,14.27
2022-12-05T06:48:40.906Z,15.20
2022-12-05T06:51:11.435Z,14.45
2022-12-05T06:53:39.191Z,14.70
2022-12-05T06:56:11.464Z,15.52
2022-12-05T06:58:39.874Z,14.75
2022-12-05T07:01:30.569Z,14.50
2022-12-05T07:03:59.224Z,14.75
2022-12-05T07:06:27.019Z,15.48
2022-12-05T07:08:54.719Z,15.32
2022-12-05T07:11:22.490Z,14.63
2022-12-05T07:13:50.288Z,14.57
2022-12-05T07:16:17.974Z,14.48
2022-12-05T07:18:45.563Z,16.02
2022-12-05T07:21:15.511Z,13.32
2022-12-05T07:23:45.469Z,14.65
2022-12-05T07:26:15.663Z,14.23
2022-12-05T07:28:43.266Z,12.93
2022-12-05T07:31:16.831Z,14.27
2022-12-05T07:33:45.048Z,15.02
2022-12-05T07:36:15.455Z,15.38
2022-12-05T07:38:43.578Z,15.73
2022-12-05T07:41:19.654Z,15.43
2022-12-05T07:43:47.328Z,14.73
2022-12-05T07:46:15.161Z,14.45
2022-12-05T07:48:42.774Z,13.88
2022-12-05T07:51:11.318Z,15.07
2022-12-05T07:53:39.758Z,15.18
2022-12-05T07:56:08.857Z,14.35
2022-12-05T07:58:37.008Z,14.35
2022-12-05T08:01:12.768Z,15.07
2022-12-05T08:03:40.476Z,15.38
2022-12-05T08:06:16.540Z,15.38
2022-12-05T08:08:44.885Z,15.88
2022-12-05T08:11:15.028Z,15.05
2022-12-05T08:13:43.480Z,15.63
2022-12-05T08:16:13.154Z,15.18
2022-12-05T08:18:41.782Z,15.75
2022-12-05T08:21:19.942Z,14.90
2022-12-05T08:23:47.896Z,16.10
2022-12-05T08:26:21.579Z,16.52
2022-12-05T08:28:53.447Z,15.82
2022-12-05T08:31:23.983Z,15.88
2022-12-05T08:33:57.317Z,15.82
2022-12-05T08:36:27.882Z,16.30
2022-12-05T08:39:04.479Z,15.18
2022-12-05T08:41:32.104Z,15.50
2022-12-05T08:44:03.234Z,14.77
2022-12-05T08:46:32.339Z,15.48
2022-12-05T08:49:00.335Z,14.90
2022-12-05T08:51:28.009Z,16.67
2022-12-05T08:53:56.492Z,15.35
2022-12-05T08:56:27.105Z,16.05
2022-12-05T08:59:02.904Z,16.08
2022-12-05T09:01:33.262Z,15.38
2022-12-05T09:04:02.515Z,14.93
2022-12-05T09:06:30.786Z,14.55
2022-12-05T09:09:01.006Z,14.40
2022-12-05T09:11:31.634Z,14.20
2022-12-05T09:14:00.137Z,13.80
2022-12-05T09:16:36.501Z,13.95
2022-12-05T09:19:14.764Z,12.85
2022-12-05T09:21:43.224Z,14.17
2022-12-05T09:24:12.980Z,14.00
2022-12-05T09:26:41.085Z,13.48
2022-12-05T09:29:15.861Z,13.63
2022-12-05T09:31:45.395Z,12.60
2022-12-05T09:34:14.926Z,12.65
2022-12-05T09:36:42.989Z,11.90
2022-12-05T09:39:11.095Z,11.18
2022-12-05T09:42:08.024Z,10.23
2022-12-05T09:44:46.103Z,10.13
2022-12-05T09:47:35.860Z,10.80
2022-12-05T09:50:12.859Z,9.95
2022-12-05T09:52:50.334Z,10.35
2022-12-05T09:55:20.003Z,9.43
2022-12-05T09:57:58.118Z,9.23
2022-12-05T10:00:27.357Z,9.70
2022-12-05T10:03:18.168Z,9.75
2022-12-05T10:05:55.764Z,8.82
2022-12-05T10:08:50.025Z,9.00
2022-12-05T10:11:32.066Z,7.40
2022-12-05T10:14:10.433Z,7.47
2022-12-05T10:16:52.389Z,6.88
2022-12-05T10:19:27.610Z,7.35
2022-12-05T10:22:20.285Z,6.30
2022-12-05T10:24:52.866Z,6.80
2022-12-05T10:27:25.455Z,5.60
2022-12-05T10:30:13.645Z,5.45
2022-12-05T10:32:54.634Z,4.78
2022-12-05T10:35:36.607Z,5.13
2022-12-05T10:38:23.011Z,5.13
2022-12-05T10:40:58.155Z,5.43
2022-12-05T10:43:31.075Z,5.10
2022-12-05T10:45:59.189Z,5.22
2022-12-05T10:48:27.730Z,5.65
2022-12-05T10:50:58.391Z,5.25
2022-12-05T10:53:31.283Z,5.35
2022-12-05T10:58:57.612Z,6.30
2022-12-05T11:01:27.119Z,6.38
2022-12-05T11:04:21.647Z,5.97
2022-12-05T11:06:55.890Z,6.63
2022-12-05T11:09:30.023Z,5.95
2022-12-05T11:12:17.371Z,5.63
2022-12-05T11:15:22.599Z,6.15
2022-12-05T11:17:51.760Z,6.30
2022-12-05T11:20:19.211Z,6.32
2022-12-05T11:22:58.159Z,6.72
2022-12-05T11:25:31.234Z,6.25
2022-12-05T11:28:01.564Z,6.47
2022-12-05T11:30:30.057Z,6.18
2022-12-05T11:33:20.383Z,6.32
2022-12-05T11:35:49.487Z,6.60
2022-12-05T11:38:18.160Z,6.13
2022-12-05T11:40:56.547Z,6.25
2022-12-05T11:43:42.127Z,6.30
2022-12-05T11:46:41.375Z,6.10
2022-12-05T11:49:42.156Z,5.85
2022-12-05T11:52:25.129Z,6.10
2022-12-05T11:55:14.140Z,6.30
2022-12-05T11:58:00.528Z,6.97
2022-12-05T12:01:05.804Z,6.53
2022-12-05T12:03:58.080Z,6.10
2022-12-05T12:07:04.214Z,6.00
2022-12-05T12:09:50.611Z,6.28
2022-12-05T12:12:31.211Z,6.32
2022-12-05T12:15:32.607Z,6.00
2022-12-05T12:18:16.998Z,5.65
2022-12-05T12:21:16.537Z,5.35
2022-12-05T12:23:59.068Z,6.00
2022-12-05T12:26:30.547Z,5.63
2022-12-05T12:29:09.835Z,5.53
2022-12-05T12:31:55.276Z,5.40
2022-12-05T12:34:28.630Z,5.70
2022-12-05T12:37:14.044Z,5.45
2022-12-05T12:40:12.821Z,6.38
2022-12-05T12:42:46.542Z,6.43
2022-12-05T12:45:24.845Z,6.00
2022-12-05T12:48:26.139Z,5.60
2022-12-05T12:50:55.035Z,6.10
2022-12-05T12:53:38.351Z,5.75
2022-12-05T12:56:23.978Z,5.68
2022-12-05T12:58:57.798Z,5.78
2022-12-05T13:01:31.772Z,5.78
2022-12-05T13:04:12.557Z,5.75
2022-12-05T13:06:51.988Z,6.28
2022-12-05T13:09:35.531Z,6.20
2022-12-05T13:12:16.102Z,6.43
2022-12-05T13:15:04.039Z,5.82
2022-12-05T13:17:32.881Z,6.10
2022-12-05T13:20:01.118Z,5.90
2022-12-05T13:22:29.532Z,5.88
2022-12-05T13:24:57.579Z,6.40
2022-12-05T13:27:28.682Z,6.55
2022-12-05T13:30:02.200Z,6.72
2022-12-05T13:32:36.236Z,6.15
2022-12-05T13:35:12.542Z,7.10
2022-12-05T13:38:08.102Z,6.40
2022-12-05T13:40:56.565Z,5.85
2022-12-05T13:43:27.158Z,5.55
2022-12-05T13:46:03.017Z,5.53
2022-12-05T13:48:33.975Z,5.70
2022-12-05T13:51:11.361Z,5.80
2022-12-05T13:53:47.877Z,6.00
2022-12-05T13:56:15.441Z,5.88
2022-12-05T13:58:53.385Z,5.90
2022-12-05T14:01:27.226Z,6.10
2022-12-05T14:03:58.286Z,6.25
2022-12-05T14:06:38.539Z,6.55
2022-12-05T14:09:18.313Z,6.10
2022-12-05T14:12:24.515Z,7.25
2022-12-05T14:14:58.025Z,6.32
2022-12-05T14:17:30.609Z,6.72
2022-12-05T14:20:05.167Z,6.85
2022-12-05T14:22:57.423Z,8.50
2022-12-05T14:25:53.157Z,7.57
2022-12-05T14:28:44.094Z,7.20
2022-12-05T14:31:29.307Z,7.00
2022-12-05T14:34:06.371Z,7.28
2022-12-05T14:36:34.128Z,7.93
2022-12-05T14:39:01.776Z,7.40
2022-12-05T14:41:34.760Z,12.02
2022-12-05T14:44:08.382Z,10.20
2022-12-05T14:46:36.513Z,7.75
2022-12-05T14:49:37.562Z,7.38
2022-12-05T14:52:11.578Z,7.60
2022-12-05T14:54:40.458Z,6.75
2022-12-05T14:57:16.269Z,7.35
2022-12-05T14:59:49.559Z,6.40
2022-12-05T15:02:27.853Z,6.43
2022-12-05T15:05:23.184Z,6.82
2022-12-05T15:07:52.896Z,7.38
2022-12-05T15:10:28.925Z,7.07
2022-12-05T15:13:03.399Z,7.07
2022-12-05T15:15:55.884Z,7.32
2022-12-05T15:18:39.017Z,6.88
2022-12-05T15:21:27.816Z,7.28
2022-12-05T15:24:03.417Z,7.43
2022-12-05T15:26:47.652Z,6.95
2022-12-05T15:29:23.247Z,6.88
2022-12-05T15:31:56.121Z,6.97
2022-12-05T15:34:43.709Z,7.28
2022-12-05T15:37:11.232Z,6.63
2022-12-05T15:40:03.921Z,6.50
2022-12-05T15:42:43.369Z,6.75
2022-12-05T15:45:14.520Z,6.70
2022-12-05T15:47:43.764Z,6.80
2022-12-05T15:50:14.944Z,6.47
2022-12-05T15:52:46.608Z,7.00
2022-12-05T15:55:23.449Z,8.05
2022-12-05T15:57:59.647Z,8.20
2022-12-05T16:00:28.232Z,6.55
2022-12-05T16:03:18.314Z,7.28
2022-12-05T16:06:01.642Z,7.20
2022-12-05T16:08:40.228Z,6.68
2022-12-05T16:11:11.995Z,6.93
2022-12-05T16:14:06.255Z,6.97
2022-12-05T16:16:36.309Z,7.20
2022-12-05T16:19:06.751Z,6.75
2022-12-05T16:21:40.878Z,6.75
2022-12-05T16:24:22.162Z,6.82
2022-12-05T16:27:25.601Z,7.57
2022-12-05T16:30:11.885Z,7.25
2022-12-05T16:32:43.129Z,6.55
2022-12-05T16:35:29.543Z,7.13
2022-12-05T16:38:21.680Z,7.68
2022-12-05T16:40:49.139Z,7.30
2022-12-05T16:43:25.468Z,7.85
2022-12-05T16:45:54.849Z,7.63
2022-12-05T16:48:28.022Z,7.75
2022-12-05T16:51:28.680Z,8.38
2022-12-05T16:53:57.090Z,7.95
2022-12-05T16:56:32.619Z,7.40
2022-12-05T16:59:04.827Z,7.27
2022-12-05T17:01:38.556Z,7.30
2022-12-05T17:04:09.648Z,6.72
2022-12-05T17:06:37.392Z,7.43
2022-12-05T17:09:05.792Z,6.63
2022-12-05T17:11:35.485Z,7.13
2022-12-05T17:14:03.735Z,6.65
2022-12-05T17:16:31.426Z,6.45
2022-12-05T17:18:59.024Z,6.40
2022-12-05T17:21:29.684Z,6.07
2022-12-05T17:23:57.255Z,5.88
2022-12-05T17:26:24.975Z,5.85
2022-12-05T17:28:52.506Z,5.03
2022-12-05T17:31:22.600Z,5.30
2022-12-05T17:33:51.494Z,5.80
2022-12-05T17:36:22.493Z,4.88
2022-12-05T17:38:50.631Z,4.55
2022-12-05T17:41:23.327Z,4.45
2022-12-05T17:43:51.543Z,4.30
2022-12-05T17:46:21.733Z,3.90
2022-12-05T17:48:50.487Z,3.63
2022-12-05T17:51:18.608Z,3.63
2022-12-05T17:53:47.365Z,3.15
2022-12-05T17:56:15.556Z,3.40
2022-12-05T17:58:43.334Z,3.20
2022-12-05T18:01:19.488Z,3.53
2022-12-05T18:03:48.117Z,3.80
2022-12-05T18:06:16.057Z,3.40
2022-12-05T18:08:45.076Z,3.75
2022-12-05T18:11:14.662Z,3.60
2022-12-05T18:13:42.363Z,3.63
2022-12-05T18:16:10.004Z,3.42
2022-12-05T18:18:37.636Z,3.30
2022-12-05T18:21:10.897Z,3.90
2022-12-05T18:23:39.788Z,4.00
2022-12-05T18:26:09.065Z,4.03
2022-12-05T18:28:38.524Z,4.30
2022-12-05T18:31:09.161Z,4.93
2022-12-05T18:33:39.305Z,4.50
2022-12-05T18:36:09.325Z,4.90
2022-12-05T18:38:37.973Z,4.40
2022-12-05T18:41:06.382Z,4.25
2022-12-05T18:43:34.550Z,3.90
2022-12-05T18:46:03.737Z,3.47
2022-12-05T18:48:42.650Z,3.58
2022-12-05T18:51:14.953Z,3.65
2022-12-05T18:53:42.672Z,3.50
2022-12-05T18:56:27.854Z,3.75
2022-12-05T18:59:04.794Z,4.18
2022-12-05T19:01:34.729Z,4.53
2022-12-05T19:04:03.969Z,5.20
2022-12-05T19:06:33.080Z,6.65
2022-12-05T19:09:04.083Z,10.57
2022-12-05T19:11:32.268Z,18.42
2022-12-05T19:14:02.017Z,33.30
2022-12-05T19:16:31.484Z,41.33
2022-12-05T19:19:01.060Z,23.25
2022-12-05T19:21:30.455Z,17.27
2022-12-05T19:23:58.622Z,12.30
2022-12-05T19:26:27.303Z,4.63
2022-12-05T19:28:54.896Z,5.25
2022-12-05T19:31:24.859Z,4.47
2022-12-05T19:33:55.142Z,3.85
2022-12-05T19:36:25.185Z,4.47
2022-12-05T19:38:54.310Z,4.28
2022-12-05T19:41:25.969Z,4.32
2022-12-05T19:43:53.712Z,4.28
2022-12-05T19:46:27.707Z,4.00
2022-12-05T19:49:18.634Z,4.05
2022-12-05T19:51:46.488Z,3.72
2022-12-05T19:54:17.629Z,3.95
2022-12-05T19:56:45.284Z,3.70
2022-12-05T19:59:16.914Z,4.07
2022-12-05T20:01:44.787Z,3.70
2022-12-05T20:04:14.919Z,3.97
2022-12-05T20:06:44.915Z,4.30
2022-12-05T20:09:13.775Z,4.50
2022-12-05T20:11:43.729Z,4.30
2022-12-05T20:14:12.946Z,4.25
2022-12-05T20:16:40.586Z,3.97
2022-12-05T20:19:09.571Z,4.25
2022-12-05T20:21:40.022Z,4.20
2022-12-05T20:24:08.560Z,4.35
2022-12-05T20:26:38.666Z,4.10
2022-12-05T20:29:07.722Z,3.70
2022-12-05T20:31:38.094Z,4.00
2022-12-05T20:34:06.772Z,4.00
2022-12-05T20:36:35.408Z,4.78
2022-12-05T20:39:06.509Z,4.50
2022-12-05T20:41:34.571Z,4.45
2022-12-05T20:44:04.591Z,4.30
2022-12-05T20:46:32.815Z,4.30
2022-12-05T20:49:00.798Z,4.28
2022-12-05T20:51:31.130Z,4.70
2022-12-05T20:54:00.748Z,4.82
2022-12-05T20:56:31.510Z,5.25
2022-12-05T20:59:01.095Z,5.28
2022-12-05T21:01:32.167Z,4.53
2022-12-05T21:04:00.290Z,4.60
2022-12-05T21:06:40.339Z,4.57
2022-12-05T21:09:15.363Z,3.80
2022-12-05T21:11:43.224Z,4.00
2022-12-05T21:14:11.443Z,4.30
2022-12-05T21:16:39.052Z,3.80
2022-12-05T21:19:06.732Z,3.70
2022-12-05T21:21:34.419Z,3.90
2022-12-05T21:24:03.395Z,4.00
2022-12-05T21:26:33.506Z,4.70
2022-12-05T21:29:01.915Z,4.50
2022-12-05T21:31:35.279Z,4.53
2022-12-05T21:34:06.297Z,4.00
2022-12-05T21:36:36.028Z,4.32
2022-12-05T21:39:03.797Z,4.00
2022-12-05T21:41:31.634Z,3.95
2022-12-05T21:43:59.785Z,3.75
2022-12-05T21:46:27.571Z,3.97
2022-12-05T21:48:55.875Z,3.85
2022-12-05T21:51:23.966Z,4.20
2022-12-05T21:53:51.975Z,4.60
2022-12-05T21:56:23.004Z,4.70
2022-12-05T21:58:51.467Z,5.13
2022-12-05T22:01:22.081Z,5.72
2022-12-05T22:03:52.586Z,4.50
2022-12-05T22:06:20.414Z,4.53
2022-12-05T22:08:48.067Z,4.90
2022-12-05T22:11:18.538Z,4.65
2022-12-05T22:13:47.052Z,4.50
2022-12-05T22:16:14.983Z,4.93
2022-12-05T22:18:43.156Z,4.68
2022-12-05T22:21:19.512Z,4.32
2022-12-05T22:23:47.880Z,4.80
2022-12-05T22:26:22.474Z,4.65
2022-12-05T22:28:54.376Z,4.70
2022-12-05T22:31:22.528Z,4.40
2022-12-05T22:33:50.550Z,3.90
2022-12-05T22:36:19.023Z,3.90
2022-12-05T22:38:47.495Z,4.22
2022-12-05T22:41:20.577Z,4.22
2022-12-05T22:43:49.019Z,4.00
2022-12-05T22:46:18.360Z,4.05
2022-12-05T22:48:46.870Z,4.10
2022-12-05T22:51:14.915Z,3.97
2022-12-05T22:53:43.680Z,3.90
2022-12-05T22:56:18.823Z,3.50
2022-12-05T22:58:46.938Z,3.55
2022-12-05T23:01:24.170Z,3.63
2022-12-05T23:04:04.958Z,3.28
2022-12-05T23:06:33.972Z,3.45
2022-12-05T23:09:02.303Z,3.55
2022-12-05T23:11:32.243Z,3.40
2022-12-05T23:14:02.236Z,3.72
2022-12-05T23:16:32.223Z,3.15
2022-12-05T23:19:03.470Z,2.88
2022-12-05T23:21:35.553Z,3.00
2022-12-05T23:24:05.466Z,2.97
2022-12-05T23:26:35.813Z,3.13
2022-12-05T23:29:03.779Z,2.92
2022-12-05T23:31:31.597Z,3.08
2022-12-05T23:34:03.221Z,2.92
2022-12-05T23:36:33.100Z,3.00
2022-12-05T23:39:01.229Z,3.22
2022-12-05T23:41:29.125Z,2.97
2022-12-05T23:43:57.205Z,2.90
2022-12-05T23:46:28.008Z,3.40
2022-12-05T23:48:58.091Z,3.08
2022-12-05T23:51:28.024Z,2.75
2022-12-05T23:53:58.104Z,3.28
2022-12-05T23:56:31.274Z,3.03
2022-12-05T23:58:59.542Z,3.20
